Pagrindinis puslapis
METAR-TAF:

METAR-TAF

Oro uostai :

Hafar Al-Batin, Saudo Arabija

platuma: 27-54N, ilguma: 045-32E, Aukštis: 413 m

METAR: trūkstamas

Laikas: 10:32 (07:32 UTC)

Prognozė

Ataskaita buvo paskelbta 2 valandos ir 32 minutes, ne 05:00 UTC
Prognozė galioja nuo 26 metu 06 UTC su 26 metu 20 UTC
Vėjas 8 kt iš Vakarų/Pietvakarių
Matomumas: 7000 m
Tapsmas
nuo 26 metu 11 UTC su 26 metu 13 UTC
Vėjas 12 kt iš Šiaurės/Šiaurės Rytų

TAF: OEKK 260500Z 2606/2620 24008KT 7000 NSC BECMG 2611/2613 02012KT

Orai ataskaitas ir orų prognozės (METAR, TAF).

turimą stotys yra geltonos ir raudonos taškus žemėlapyje.

Perkelti pele per norėdami pamatyti stoties vardą.

Tada spustelėkite, norėdami matyti oro stebėjimo ir prognozės.

Norėdami pakeisti žemėlapį: spustelėkite ant žalios mygtukų su juodo kryžiaus žemyn,; žalią mygtuką su brūkšneliu, jei norite nutolinti; arba žalių rodyklių gretimoms žemėlapius.


METAR-TAF: